Time;durP1;ratioP1;P1;durP2;ratioP2;P2;SDS_P1;SDS_P2;PMS_P1;PMS_P2;Temp;Humidity;BMP_temperature;BMP_pressure;BME280_temperature;BME280_humidity;BME280_pressure;Samples;Min_cycle;Max_cycle;Signal;HPM_P1;HPM_P2
2023/10/10 00:00:54;;;;;;;15.23;5.15;;;;;;;11.61;71.78;100744.53;5072812;28;20050;-67
2023/10/10 00:03:24;;;;;;;11.80;5.40;;;;;;;11.72;72.42;100739.72;5072672;28;20044;-67
2023/10/10 00:05:49;;;;;;;13.02;5.05;;;;;;;11.90;69.97;100697.25;5073273;28;20039;-67
2023/10/10 00:08:16;;;;;;;12.75;5.55;;;;;;;11.95;68.54;100668.13;5072293;28;20033;-67
2023/10/10 00:10:49;;;;;;;11.75;5.30;;;;;;;12.12;69.82;100710.16;5072176;28;20032;-67
2023/10/10 00:13:16;;;;;;;10.38;4.93;;;;;;;11.94;69.28;100668.94;5054441;28;20529;-67
2023/10/10 00:15:49;;;;;;;16.27;5.85;;;;;;;12.23;67.32;100697.56;5072529;28;20039;-67
2023/10/10 00:18:21;;;;;;;14.15;5.55;;;;;;;12.21;68.17;100668.19;5072582;28;20040;-67
2023/10/10 00:21:07;;;;;;;18.40;5.78;;;;;;;12.50;67.56;100701.00;5072689;28;20045;-67
2023/10/10 00:23:47;;;;;;;15.13;4.95;;;;;;;12.01;69.13;100711.47;5072376;28;20064;-67
2023/10/10 00:26:12;;;;;;;;;;;;;;;12.00;69.16;100714.91;5073015;28;20182;-68
2023/10/10 00:28:42;;;;;;;11.88;5.10;;;;;;;11.77;69.75;100722.66;5072492;28;20413;-67
2023/10/10 00:31:12;;;;;;;13.90;5.10;;;;;;;11.49;70.63;100718.22;5072463;28;20040;-67
2023/10/10 00:33:40;;;;;;;16.13;6.07;;;;;;;11.53;70.53;100706.28;5072415;28;20510;-67
2023/10/10 00:36:11;;;;;;;12.43;5.45;;;;;;;11.56;71.06;100706.38;5072023;28;20029;-67
2023/10/10 00:38:36;;;;;;;13.65;4.47;;;;;;;11.28;72.46;100715.69;5071935;28;20455;-67
2023/10/10 00:41:07;;;;;;;10.30;4.55;;;;;;;11.13;72.31;100695.31;5072448;28;20125;-68
2023/10/10 00:43:32;;;;;;;11.80;5.10;;;;;;;10.92;73.99;100722.06;5071681;28;20040;-67
2023/10/10 00:46:04;;;;;;;10.82;5.15;;;;;;;10.75;74.72;100729.13;5072214;28;20033;-67
2023/10/10 00:48:32;;;;;;;13.25;5.45;;;;;;;10.67;74.20;100733.13;5009581;28;20065;-67
2023/10/10 00:51:11;;;;;;;10.40;5.28;;;;;;;10.33;75.59;100705.88;5009689;28;20081;-67
2023/10/10 00:53:41;;;;;;;14.30;4.90;;;;;;;10.56;75.02;100718.91;5009843;28;20603;-67
2023/10/10 00:56:07;;;;;;;11.80;4.88;;;;;;;10.47;75.08;100717.69;5009702;28;20503;-67
2023/10/10 00:58:36;;;;;;;10.60;4.20;;;;;;;10.57;74.86;100721.53;5009402;28;20123;-67
2023/10/10 01:01:10;;;;;;;15.38;4.97;;;;;;;10.57;74.52;100725.84;5009641;28;20104;-67
2023/10/10 01:03:45;;;;;;;11.75;4.70;;;;;;;10.57;74.14;100725.84;5009232;28;20578;-67
2023/10/10 01:06:24;;;;;;;14.43;5.60;;;;;;;10.56;73.63;100721.50;5009448;28;20491;-67
2023/10/10 01:09:20;;;;;;;15.30;5.90;;;;;;;10.50;73.00;100717.84;5009309;28;20177;-67
2023/10/10 01:11:48;;;;;;;15.88;4.75;;;;;;;10.42;73.46;100711.47;5009420;28;20436;-67
2023/10/10 01:14:18;;;;;;;9.95;5.50;;;;;;;10.24;73.37;100656.47;5009242;28;20038;-67
2023/10/10 01:16:47;;;;;;;12.05;5.03;;;;;;;10.48;73.14;100705.66;5009285;28;20042;-67
2023/10/10 01:19:14;;;;;;;13.10;4.70;;;;;;;10.62;73.30;100708.81;5032580;28;20481;-67
2023/10/10 01:21:50;;;;;;;8.63;4.47;;;;;;;10.73;73.33;100712.72;5084897;28;20259;-67
2023/10/10 01:24:17;;;;;;;12.93;5.10;;;;;;;10.79;73.27;100712.97;5091693;28;20032;-67
2023/10/10 01:26:44;;;;;;;10.90;4.22;;;;;;;10.74;73.61;100698.09;5091652;28;20039;-67
2023/10/10 01:29:21;;;;;;;12.57;4.25;;;;;;;10.79;74.01;100706.91;5091359;28;20057;-67
2023/10/10 01:31:48;;;;;;;9.05;4.57;;;;;;;10.80;73.48;100714.75;5091674;28;20047;-68
2023/10/10 01:34:30;;;;;;;12.68;5.38;;;;;;;10.83;73.29;100717.44;5091457;28;20036;-67
2023/10/10 01:37:14;;;;;;;10.18;5.20;;;;;;;10.84;72.66;100703.69;5091473;28;20036;-68
2023/10/10 01:40:09;;;;;;;11.85;5.25;;;;;;;10.62;73.20;100706.25;5091163;28;20447;-67
2023/10/10 01:42:44;;;;;;;11.13;4.97;;;;;;;10.71;72.53;100713.47;5091474;28;20036;-67
2023/10/10 01:45:10;;;;;;;15.02;5.95;;;;;;;10.63;71.79;100711.47;5091205;28;20032;-67
2023/10/10 01:47:39;;;;;;;10.50;5.80;;;;;;;10.56;70.97;100711.16;5091267;28;20081;-67
2023/10/10 01:50:08;;;;;;;13.37;5.73;;;;;;;10.65;70.40;100711.53;5091271;28;20520;-67
2023/10/10 01:52:46;;;;;;;14.88;5.68;;;;;;;10.58;70.18;100701.75;5091352;28;20035;-67
2023/10/10 01:55:12;;;;;;;12.20;5.22;;;;;;;10.72;71.23;100702.34;5091129;28;20504;-67
2023/10/10 01:57:38;;;;;;;11.55;5.45;;;;;;;10.63;71.12;100658.94;5091183;28;20047;-67
2023/10/10 02:00:19;;;;;;;10.30;5.68;;;;;;;10.90;70.60;100697.88;5091248;28;20060;-67
2023/10/10 02:02:45;;;;;;;14.38;5.30;;;;;;;10.99;70.80;100706.00;5091127;28;20070;-67
2023/10/10 02:05:13;;;;;;;15.15;5.45;;;;;;;11.08;70.57;100696.81;5091036;28;20047;-67
2023/10/10 02:07:39;;;;;;;11.85;5.43;;;;;;;11.06;70.29;100691.59;5090723;28;20044;-66
2023/10/10 02:10:13;;;;;;;13.48;5.55;;;;;;;11.28;69.57;100692.44;5091208;28;20047;-67
2023/10/10 02:12:44;;;;;;;12.00;5.50;;;;;;;11.16;69.13;100703.19;5091017;28;20044;-67
2023/10/10 02:15:13;;;;;;;13.57;5.70;;;;;;;10.96;70.08;100668.84;5091070;28;20103;-67
2023/10/10 02:17:40;;;;;;;;;;;;;;;11.31;69.62;100713.22;5091267;28;20086;-67
2023/10/10 02:22:53;;;;;;;11.98;5.20;;;;;;;11.31;69.20;100720.97;5090671;28;20040;-67
2023/10/10 02:28:08;;;;;;;9.30;5.28;;;;;;;11.41;67.81;100699.81;5090604;28;20044;-67
2023/10/10 02:30:37;;;;;;;10.90;5.30;;;;;;;11.53;66.69;100701.13;5090777;28;20039;-67
2023/10/10 02:35:54;;;;;;;16.85;5.15;;;;;;;11.68;69.02;100691.31;5094887;28;20046;-67
2023/10/10 02:38:33;;;;;;;10.48;4.63;;;;;;;11.75;68.09;100693.31;5094807;28;20066;-67
2023/10/10 02:41:15;;;;;;;10.32;4.75;;;;;;;11.73;69.08;100705.28;5094926;28;20035;-67
2023/10/10 02:46:35;;;;;;;13.68;4.22;;;;;;;11.50;72.33;100673.41;5094686;28;20590;-67
2023/10/10 02:52:06;;;;;;;10.13;4.03;;;;;;;11.53;71.52;100688.19;5031471;28;20503;-67
2023/10/10 02:54:36;;;;;;;8.55;4.25;;;;;;;11.48;71.95;100668.19;5031638;28;20037;-67
2023/10/10 02:59:52;;;;;;;9.52;4.63;;;;;;;11.32;71.83;100671.91;5031359;28;20101;-67
2023/10/10 03:02:28;;;;;;;10.48;4.05;;;;;;;11.20;72.62;100670.59;5031379;28;20037;-67
2023/10/10 03:07:29;;;;;;;9.73;4.32;;;;;;;11.30;70.23;100671.00;5031673;28;20045;-67
2023/10/10 03:13:13;;;;;;;8.00;4.03;;;;;;;11.18;68.87;100678.28;4991673;28;20130;-67
2023/10/10 03:15:40;;;;;;;11.88;5.15;;;;;;;11.04;70.28;100676.88;4991811;28;20042;-67
2023/10/10 03:25:47;;;;;;;9.68;4.28;;;;;;;11.40;73.13;100692.00;4991791;28;20034;-67
2023/10/10 03:28:20;;;;;;;9.57;4.13;;;;;;;11.43;74.27;100672.31;4996943;28;20050;-67
2023/10/10 03:31:10;;;;;;;13.23;4.82;;;;;;;11.49;75.72;100682.88;5011267;28;20056;-67
2023/10/10 05:25:06;;;;;;;7.88;3.60;;;;;;;12.07;81.76;100752.22;4989550;28;20476;-67
2023/10/10 05:27:32;;;;;;;9.55;3.03;;;;;;;12.13;82.27;100770.53;4989561;28;20122;-66
2023/10/10 05:29:59;;;;;;;8.05;3.10;;;;;;;12.16;81.77;100767.19;4989459;28;20220;-67
2023/10/10 05:32:30;;;;;;;7.35;3.38;;;;;;;12.21;81.68;100781.16;4956643;28;20053;-66
2023/10/10 05:34:58;;;;;;;9.98;4.00;;;;;;;12.24;81.56;100787.34;4989475;28;20525;-67
2023/10/10 05:37:24;;;;;;;10.93;4.30;;;;;;;12.19;81.92;100786.28;4989357;28;20505;-67
2023/10/10 05:39:56;;;;;;;7.60;3.78;;;;;;;12.20;82.39;100780.28;4989442;28;20054;-66
2023/10/10 05:42:25;;;;;;;9.98;3.03;;;;;;;12.16;82.26;100782.72;4989345;28;20038;-67
2023/10/10 05:44:51;;;;;;;6.28;2.95;;;;;;;11.98;83.33;100770.88;4988984;28;20042;-67
2023/10/10 05:47:17;;;;;;;6.13;2.80;;;;;;;11.88;83.60;100768.75;4989206;28;20050;-67
2023/10/10 05:49:43;;;;;;;8.18;3.40;;;;;;;11.77;84.29;100768.34;5031543;28;20518;-67
2023/10/10 05:52:08;;;;;;;5.50;3.00;;;;;;;11.84;84.60;100777.22;5071015;28;20033;-67
2023/10/10 05:54:34;;;;;;;9.15;3.67;;;;;;;11.85;84.88;100778.97;5070966;28;20031;-67
2023/10/10 05:56:59;;;;;;;15.18;3.80;;;;;;;11.95;85.19;100787.16;5052996;28;20036;-67
2023/10/10 05:59:28;;;;;;;8.48;3.83;;;;;;;12.07;85.16;100791.91;5070739;28;20052;-67
2023/10/10 06:01:53;;;;;;;7.00;3.90;;;;;;;11.94;85.15;100761.22;5070696;28;20483;-67
2023/10/10 06:04:19;;;;;;;12.98;4.28;;;;;;;12.08;85.72;100790.22;5070799;28;20044;-67
2023/10/10 06:06:46;;;;;;;11.50;3.65;;;;;;;12.16;85.98;100791.34;5069994;28;20040;-67
2023/10/10 06:09:18;;;;;;;7.00;3.35;;;;;;;12.11;85.16;100752.38;5070692;28;20064;-67
2023/10/10 06:11:45;;;;;;;11.60;4.25;;;;;;;12.44;84.88;100800.97;5070955;28;20035;-67
2023/10/10 06:14:11;;;;;;;8.80;3.85;;;;;;;12.59;84.96;100794.56;5070795;28;20132;-66
2023/10/10 06:16:37;;;;;;;9.93;3.60;;;;;;;12.66;85.01;100796.53;5070736;28;20036;-67
2023/10/10 06:19:03;;;;;;;10.43;3.58;;;;;;;12.73;84.07;100785.53;5070743;28;20043;-66
2023/10/10 06:21:29;;;;;;;9.27;3.78;;;;;;;12.95;83.57;100801.81;5070798;28;20111;-67
2023/10/10 06:23:55;;;;;;;10.18;3.67;;;;;;;13.08;83.02;100811.75;5070316;28;20118;-67
2023/10/10 06:26:21;;;;;;;8.55;3.95;;;;;;;13.15;82.66;100806.75;5034766;28;20037;-66
2023/10/10 06:28:53;;;;;;;8.65;3.95;;;;;;;13.20;83.04;100805.19;5070532;28;20036;-66
2023/10/10 06:31:33;;;;;;;10.75;3.85;;;;;;;13.31;82.20;100808.09;5070567;28;20044;-66
2023/10/10 06:33:59;;;;;;;8.13;4.65;;;;;;;13.49;82.04;100806.09;5070785;28;20048;-66
2023/10/10 06:38:59;;;;;;;14.63;5.60;;;;;;;13.78;80.11;100802.63;5070710;28;20037;-66
2023/10/10 06:41:34;;;;;;;8.05;4.63;;;;;;;13.92;79.83;100798.72;5070522;28;20036;-67
2023/10/10 06:43:59;;;;;;;9.38;4.25;;;;;;;13.87;79.08;100790.78;5052106;28;20043;-66
2023/10/10 06:46:32;;;;;;;10.15;3.80;;;;;;;13.90;79.81;100801.25;5070518;28;20032;-66
2023/10/10 06:49:04;;;;;;;12.25;5.07;;;;;;;13.99;79.68;100803.22;5070456;28;20047;-66
2023/10/10 06:51:30;;;;;;;8.40;4.00;;;;;;;13.75;78.50;100765.34;5070155;28;20040;-66
2023/10/10 06:53:56;;;;;;;11.82;3.30;;;;;;;13.95;78.65;100788.41;5070407;28;20033;-66
2023/10/10 06:56:44;;;;;;;9.88;3.45;;;;;;;14.15;78.17;100795.88;5070278;28;20075;-66
2023/10/10 06:59:20;;;;;;;27.52;4.43;;;;;;;14.40;76.97;100795.72;5070239;28;20056;-66
2023/10/10 07:01:46;;;;;;;10.43;3.88;;;;;;;14.57;75.74;100790.06;5070485;28;20063;-66
2023/10/10 07:04:13;;;;;;;8.50;3.13;;;;;;;14.83;74.35;100813.28;5070261;28;20079;-67
2023/10/10 07:06:43;;;;;;;7.53;3.40;;;;;;;14.95;73.64;100815.28;5070317;28;20468;-66
2023/10/10 07:09:17;;;;;;;8.60;3.15;;;;;;;15.03;73.12;100805.97;5070301;28;20032;-66
2023/10/10 07:11:43;;;;;;;13.65;3.05;;;;;;;14.92;73.52;100823.91;5070201;28;20043;-67
2023/10/10 07:14:10;;;;;;;10.90;3.40;;;;;;;15.16;73.39;100821.00;5069893;28;20045;-67
2023/10/10 07:16:35;;;;;;;7.13;3.33;;;;;;;15.41;72.29;100805.09;5070034;28;20474;-66
2023/10/10 07:19:19;;;;;;;14.68;3.45;;;;;;;15.63;71.66;100815.13;5072246;28;20037;-67
2023/10/10 07:21:45;;;;;;;8.45;3.03;;;;;;;15.70;71.84;100829.16;5074079;28;20474;-67
2023/10/10 07:24:14;;;;;;;6.75;3.13;;;;;;;15.81;70.75;100832.88;5073664;28;20394;-67
2023/10/10 07:26:43;;;;;;;7.28;3.20;;;;;;;15.93;70.06;100829.69;5022908;28;20046;-67
2023/10/10 07:29:27;;;;;;;;;;;;;;;15.93;70.07;100826.22;5021509;28;20074;-67
2023/10/10 07:34:42;;;;;;;8.00;2.88;;;;;;;15.46;72.07;100832.09;5073562;28;20039;-67
2023/10/10 07:37:09;;;;;;;5.40;2.88;;;;;;;15.55;71.80;100826.22;5073199;28;20086;-67
2023/10/10 07:39:55;;;;;;;7.35;3.38;;;;;;;15.41;72.20;100813.78;5073290;28;20028;-67
2023/10/10 07:42:27;;;;;;;7.90;2.90;;;;;;;15.37;71.97;100806.75;5073407;28;20039;-67
2023/10/10 07:44:55;;;;;;;6.95;2.67;;;;;;;15.60;72.04;100829.81;5073278;28;20044;-67
2023/10/10 07:47:25;;;;;;;6.93;3.07;;;;;;;15.66;73.03;100819.53;5073337;28;20039;-67
2023/10/10 07:49:56;;;;;;;7.28;2.90;;;;;;;15.63;71.43;100794.31;5073034;28;20107;-67
2023/10/10 07:52:22;;;;;;;6.35;3.13;;;;;;;15.91;72.06;100823.56;5073177;28;20029;-67
2023/10/10 07:54:53;;;;;;;7.95;3.10;;;;;;;16.04;71.96;100821.19;5055142;28;20036;-67
2023/10/10 07:57:22;;;;;;;5.65;3.20;;;;;;;15.78;72.10;100754.72;5073160;28;20041;-67
2023/10/10 07:59:58;;;;;;;9.18;3.92;;;;;;;16.26;71.54;100820.81;5073194;28;20056;-67
2023/10/10 08:02:24;;;;;;;6.20;2.88;;;;;;;16.44;70.66;100814.19;5072857;28;20395;-67
2023/10/10 08:04:58;;;;;;;7.38;3.25;;;;;;;16.61;70.88;100825.78;5072844;28;20520;-67
2023/10/10 08:07:24;;;;;;;7.70;3.05;;;;;;;16.73;70.88;100816.41;5072893;28;20067;-67
2023/10/10 08:10:11;;;;;;;8.60;3.22;;;;;;;16.82;68.21;100814.84;5054810;28;20037;-67
2023/10/10 08:12:37;;;;;;;9.95;2.90;;;;;;;16.90;68.31;100817.56;5072855;28;20028;-67
2023/10/10 08:15:18;;;;;;;5.93;2.55;;;;;;;17.06;68.82;100821.34;5072692;28;20037;-67
2023/10/10 08:17:52;;;;;;;8.77;2.88;;;;;;;17.17;67.54;100815.41;5072737;28;20470;-66
2023/10/10 08:20:36;;;;;;;6.95;3.17;;;;;;;17.21;68.48;100818.09;5072576;28;20036;-67
2023/10/10 08:23:03;;;;;;;4.25;2.53;;;;;;;17.32;66.20;100814.75;5072697;28;20446;-66
2023/10/10 08:25:29;;;;;;;5.63;2.85;;;;;;;17.46;65.94;100800.19;5072445;28;20068;-67
2023/10/10 08:28:00;;;;;;;5.93;2.85;;;;;;;17.63;65.48;100811.75;5072328;28;20435;-67
2023/10/10 08:30:27;;;;;;;7.40;2.80;;;;;;;17.65;64.89;100803.06;5071717;28;20564;-67
2023/10/10 08:32:59;;;;;;;5.13;2.60;;;;;;;17.36;66.92;100749.59;5072578;28;20039;-67
2023/10/10 08:35:27;;;;;;;5.32;2.75;;;;;;;17.67;64.14;100788.28;5072484;28;20036;-66
2023/10/10 08:37:53;;;;;;;5.60;2.65;;;;;;;17.79;63.56;100804.09;5072202;28;20033;-67
2023/10/10 08:40:22;;;;;;;7.00;3.28;;;;;;;17.59;63.97;100777.72;5072347;28;20548;-67
2023/10/10 08:42:50;;;;;;;10.10;2.60;;;;;;;17.89;64.88;100800.72;5072284;28;20047;-67
2023/10/10 08:45:25;;;;;;;6.22;3.03;;;;;;;17.93;64.57;100805.16;5072246;28;20059;-66
2023/10/10 08:48:00;;;;;;;6.30;2.70;;;;;;;17.93;66.20;100805.16;5071949;28;20056;-67
2023/10/10 08:50:32;;;;;;;7.82;3.17;;;;;;;17.77;65.90;100774.50;5072101;28;20501;-66
2023/10/10 08:52:59;;;;;;;6.75;3.10;;;;;;;18.00;66.73;100802.66;5071976;28;20039;-67
2023/10/10 08:55:28;;;;;;;6.00;2.75;;;;;;;18.07;66.84;100807.09;5071905;28;20041;-66
2023/10/10 08:57:57;;;;;;;10.65;2.95;;;;;;;18.13;61.92;100804.56;5071729;28;20091;-67
2023/10/10 09:00:27;;;;;;;5.45;2.90;;;;;;;18.01;62.09;100778.28;5071890;28;20076;-67
2023/10/10 09:02:55;;;;;;;7.13;2.65;;;;;;;18.22;61.69;100802.03;5071517;28;20048;-67
2023/10/10 09:05:22;;;;;;;9.85;3.58;;;;;;;18.23;61.03;100805.50;5071450;28;20555;-67
2023/10/10 09:07:48;;;;;;;7.57;2.35;;;;;;;18.20;61.94;100798.50;5071731;28;20127;-67
2023/10/10 09:10:14;;;;;;;7.72;2.72;;;;;;;18.21;61.97;100787.19;5071680;28;20032;-67
2023/10/10 09:12:56;;;;;;;8.48;3.10;;;;;;;18.30;62.12;100806.47;5071745;28;20055;-67
2023/10/10 09:15:23;;;;;;;6.18;2.85;;;;;;;18.33;61.03;100807.38;5071355;28;20128;-67
2023/10/10 09:17:55;;;;;;;8.45;2.70;;;;;;;18.31;60.27;100803.84;5071133;28;20041;-67
2023/10/10 09:20:28;;;;;;;7.18;2.72;;;;;;;18.34;59.21;100811.72;5071402;28;20039;-66
2023/10/10 09:22:56;;;;;;;7.43;2.88;;;;;;;18.32;58.87;100817.78;5071600;28;20119;-66
2023/10/10 09:25:26;;;;;;;9.23;2.58;;;;;;;18.30;59.18;100815.16;5071467;28;20394;-66
2023/10/10 09:28:18;;;;;;;;;;;;;;;18.28;59.55;100811.69;5071580;28;20052;-67
2023/10/10 09:30:58;;;;;;;6.40;2.70;;;;;;;18.26;59.60;100810.78;4989494;28;19913;-67
2023/10/10 09:35:59;;;;;;;6.97;3.15;;;;;;;18.36;58.01;100809.16;4989500;28;20057;-67
2023/10/10 09:38:34;;;;;;;8.70;2.88;;;;;;;18.39;58.91;100811.78;4989432;28;20425;-67
2023/10/10 09:54:46;;;;;;;8.55;3.70;;;;;;;18.52;55.80;100786.66;4989425;28;20485;-67
2023/10/10 09:57:13;;;;;;;7.18;3.17;;;;;;;18.64;55.90;100798.94;4988985;28;20073;-67
2023/10/10 09:59:42;;;;;;;6.47;2.88;;;;;;;18.73;55.49;100793.81;4988976;28;20082;-67
2023/10/10 10:02:07;;;;;;;9.85;3.33;;;;;;;18.61;56.63;100762.31;4989118;28;20037;-66
2023/10/10 10:04:41;;;;;;;9.20;3.40;;;;;;;18.93;55.92;100796.63;4956450;28;20042;-67
2023/10/10 10:07:12;;;;;;;9.02;3.13;;;;;;;19.13;54.87;100788.91;5015767;28;20032;-67
2023/10/10 10:09:53;;;;;;;8.05;3.17;;;;;;;19.21;56.67;100794.19;5070526;28;20551;-67
2023/10/10 10:12:30;;;;;;;6.78;2.60;;;;;;;19.24;55.03;100800.31;5070530;28;20560;-67
2023/10/10 10:15:28;;;;;;;9.30;3.15;;;;;;;19.23;55.69;100785.47;5018605;28;20060;-67
2023/10/10 10:18:12;;;;;;;9.73;2.90;;;;;;;19.03;54.41;100748.72;5070090;28;20503;-67
2023/10/10 10:20:47;;;;;;;6.15;2.90;;;;;;;19.34;55.94;100782.03;5070687;28;20043;-67
2023/10/10 10:23:33;;;;;;;7.57;3.42;;;;;;;19.44;55.74;100780.34;5083011;28;20079;-67
2023/10/10 10:26:06;;;;;;;8.80;3.63;;;;;;;19.48;57.90;100790.84;5090784;28;20497;-67
2023/10/10 10:28:35;;;;;;;13.13;3.92;;;;;;;19.50;55.90;100790.84;5090737;28;20042;-67
2023/10/10 10:31:27;;;;;;;8.38;3.22;;;;;;;19.49;55.37;100776.91;5090625;28;20043;-66
2023/10/10 10:34:23;;;;;;;5.57;3.22;;;;;;;19.57;55.60;100776.94;5090688;28;20039;-67
2023/10/10 10:36:56;;;;;;;8.13;3.08;;;;;;;19.56;56.81;100772.56;5073797;28;20105;-68
2023/10/10 10:39:33;;;;;;;7.10;3.03;;;;;;;19.65;56.04;100763.88;5090735;28;20036;-67
2023/10/10 10:41:59;;;;;;;10.80;3.78;;;;;;;19.67;57.19;100770.88;5090327;28;20520;-67
2023/10/10 10:44:43;;;;;;;7.90;3.22;;;;;;;19.72;57.34;100758.66;5090519;28;20111;-67
2023/10/10 10:47:11;;;;;;;9.15;3.65;;;;;;;19.80;56.24;100763.94;5090260;28;20055;-67
2023/10/10 10:49:39;;;;;;;6.13;3.42;;;;;;;19.76;55.78;100756.06;5090716;28;20084;-67
2023/10/10 10:52:18;;;;;;;7.72;3.00;;;;;;;19.69;55.22;100729.84;5090740;28;20032;-67
2023/10/10 10:55:07;;;;;;;7.57;3.17;;;;;;;19.98;54.41;100764.91;5094072;28;20103;-67
2023/10/10 10:57:38;;;;;;;;;;;;;;;19.99;54.24;100766.66;5095038;28;20501;-67
2023/10/10 11:00:19;;;;;;;6.03;3.03;;;;;;;20.11;55.37;100760.56;5094261;28;19924;-67
2023/10/10 11:02:50;;;;;;;9.90;3.55;;;;;;;20.11;56.26;100748.34;5094364;28;20485;-67
2023/10/10 11:05:26;;;;;;;6.22;3.17;;;;;;;20.22;57.10;100757.97;5094256;28;20076;-67
2023/10/10 11:08:03;;;;;;;9.43;3.67;;;;;;;20.45;55.13;100753.63;5094287;28;20035;-67
2023/10/10 11:10:36;;;;;;;15.15;3.50;;;;;;;20.46;55.24;100736.13;5094307;28;20032;-67
2023/10/10 11:13:07;;;;;;;9.15;3.78;;;;;;;20.70;53.47;100748.38;5091967;28;20070;-67
2023/10/10 11:15:38;;;;;;;11.77;4.60;;;;;;;20.79;55.09;100739.66;5094266;28;20084;-67
2023/10/10 11:18:08;;;;;;;6.70;3.35;;;;;;;20.77;54.66;100709.94;5094370;28;20046;-67
2023/10/10 11:20:56;;;;;;;8.82;4.05;;;;;;;21.26;54.25;100735.19;5094181;28;20032;-67
2023/10/10 11:23:32;;;;;;;9.48;3.55;;;;;;;21.55;52.70;100739.50;5093914;28;20036;-67
2023/10/10 11:26:00;;;;;;;8.20;3.33;;;;;;;21.81;51.48;100729.75;5093910;28;20060;-67
2023/10/10 11:28:37;;;;;;;8.23;3.72;;;;;;;21.90;51.23;100728.81;5093507;28;20498;-67
2023/10/10 11:31:07;;;;;;;8.48;3.70;;;;;;;21.96;52.27;100712.16;5093794;28;20033;-67
2023/10/10 11:33:56;;;;;;;8.25;3.47;;;;;;;22.27;52.31;100730.34;5093695;28;20043;-67
2023/10/10 11:36:29;;;;;;;7.10;3.28;;;;;;;22.24;50.23;100727.72;5094282;28;20040;-67
2023/10/10 11:38:56;;;;;;;6.20;3.30;;;;;;;22.27;51.13;100719.84;5093789;28;20032;-67
2023/10/10 11:41:31;;;;;;;9.30;3.50;;;;;;;22.43;51.30;100723.22;5093587;28;20532;-67
2023/10/10 11:44:02;;;;;;;6.78;3.13;;;;;;;22.60;51.49;100731.00;5093682;28;20075;-67
2023/10/10 11:46:29;;;;;;;10.07;3.35;;;;;;;22.52;50.19;100688.06;5093846;28;20040;-67
2023/10/10 11:48:55;;;;;;;8.68;3.30;;;;;;;22.85;49.73;100722.88;5093530;28;20505;-67
2023/10/10 11:51:36;;;;;;;8.10;3.13;;;;;;;22.76;49.87;100721.19;5093794;28;20036;-67
2023/10/10 11:54:02;;;;;;;10.80;3.75;;;;;;;22.65;50.33;100726.56;5093349;28;20036;-66
2023/10/10 11:56:34;;;;;;;5.82;3.35;;;;;;;22.19;49.36;100690.06;5093521;28;20028;-67
2023/10/10 11:59:14;;;;;;;8.20;3.25;;;;;;;22.22;49.76;100714.59;5092990;28;20421;-67
2023/10/10 12:02:07;;;;;;;5.30;3.00;;;;;;;22.24;52.46;100701.44;5093382;28;20036;-67
2023/10/10 12:04:34;;;;;;;6.18;3.60;;;;;;;22.30;52.23;100714.53;5092126;28;20043;-67
2023/10/10 12:07:04;;;;;;;6.07;3.30;;;;;;;22.53;52.34;100721.41;5092825;28;20028;-67
2023/10/10 12:09:30;;;;;;;7.30;3.20;;;;;;;22.72;53.00;100709.81;5092821;28;20557;-66
2023/10/10 12:11:59;;;;;;;10.18;4.00;;;;;;;22.88;51.11;100713.19;5093273;28;20127;-66
2023/10/10 12:14:32;;;;;;;5.55;2.78;;;;;;;22.97;50.98;100687.63;5093112;28;20100;-67
2023/10/10 12:17:05;;;;;;;7.95;2.85;;;;;;;22.90;48.87;100719.31;5093056;28;20134;-67
2023/10/10 12:19:36;;;;;;;9.13;3.30;;;;;;;22.60;51.17;100728.34;5092844;28;20046;-66
2023/10/10 12:22:08;;;;;;;7.20;3.15;;;;;;;22.55;51.33;100717.00;5090925;28;20111;-68
2023/10/10 12:24:35;;;;;;;5.82;2.92;;;;;;;22.30;52.24;100717.16;5074783;28;20563;-67
2023/10/10 12:27:01;;;;;;;6.78;2.78;;;;;;;22.41;52.23;100717.97;5072374;28;20123;-67
2023/10/10 12:29:30;;;;;;;5.78;3.00;;;;;;;22.46;51.04;100712.69;5072499;28;20048;-67
2023/10/10 12:31:56;;;;;;;13.98;3.63;;;;;;;22.40;51.75;100712.75;5072462;28;20064;-67
2023/10/10 12:34:24;;;;;;;10.13;3.53;;;;;;;22.35;52.92;100704.84;5072346;28;20532;-67
2023/10/10 12:36:59;;;;;;;22.77;4.20;;;;;;;22.17;52.15;100699.72;5072771;28;20097;-67
2023/10/10 12:39:27;;;;;;;7.15;4.25;;;;;;;22.13;51.60;100704.13;5082769;28;20028;-68
2023/10/10 12:41:54;;;;;;;9.30;5.57;;;;;;;22.07;52.73;100709.44;5092434;28;20068;-67
2023/10/10 12:44:20;;;;;;;8.40;4.80;;;;;;;22.02;53.33;100709.47;5092317;28;20028;-67
2023/10/10 12:46:45;;;;;;;9.18;4.20;;;;;;;22.02;52.38;100706.84;5092292;28;20036;-67
2023/10/10 12:49:11;;;;;;;7.82;4.53;;;;;;;21.97;53.42;100703.38;5092526;28;20035;-67
2023/10/10 12:51:39;;;;;;;8.45;5.50;;;;;;;22.00;52.66;100705.97;5092366;28;20063;-67
2023/10/10 12:54:10;;;;;;;11.07;6.32;;;;;;;21.92;53.11;100698.16;5039954;28;20036;-67
2023/10/10 12:56:38;;;;;;;12.70;7.78;;;;;;;21.96;52.73;100707.75;5092235;28;20103;-67
2023/10/10 12:59:07;;;;;;;9.25;7.53;;;;;;;21.97;53.12;100703.38;5091877;28;20044;-67
2023/10/10 13:01:35;;;;;;;15.33;8.93;;;;;;;21.74;53.58;100666.72;5092121;28;20032;-67
2023/10/10 13:04:07;;;;;;;12.57;5.85;;;;;;;22.04;53.33;100714.72;5073851;28;20032;-67
2023/10/10 13:06:35;;;;;;;12.88;4.72;;;;;;;21.94;52.86;100712.16;5091783;28;20047;-67
2023/10/10 13:09:03;;;;;;;7.35;4.07;;;;;;;21.91;52.96;100719.19;5091872;28;20482;-67
2023/10/10 13:11:43;;;;;;;8.40;4.07;;;;;;;21.80;53.31;100706.09;5091955;28;20036;-67
2023/10/10 13:14:10;;;;;;;8.82;4.35;;;;;;;21.80;53.29;100720.09;5091835;28;20478;-67
2023/10/10 13:19:09;;;;;;;5.50;3.40;;;;;;;21.90;53.38;100712.19;5091712;28;20424;-67
2023/10/10 13:21:38;;;;;;;7.82;3.90;;;;;;;21.96;53.07;100701.63;5091734;28;20045;-67
2023/10/10 13:24:11;;;;;;;8.13;4.00;;;;;;;22.09;52.20;100708.56;5091591;28;20040;-67
2023/10/10 13:26:38;;;;;;;5.32;3.65;;;;;;;22.13;53.06;100715.53;5041961;28;20040;-67
2023/10/10 13:29:05;;;;;;;11.50;4.28;;;;;;;21.92;52.09;100671.88;5073345;28;20050;-67
2023/10/10 13:31:30;;;;;;;5.50;3.65;;;;;;;22.23;52.25;100708.47;5091567;28;20035;-67
2023/10/10 13:33:56;;;;;;;9.50;3.45;;;;;;;22.23;51.89;100700.56;5091502;28;20036;-67
2023/10/10 13:36:22;;;;;;;8.50;4.25;;;;;;;22.29;51.49;100702.25;5091513;28;20043;-67
2023/10/10 13:38:49;;;;;;;8.95;3.25;;;;;;;22.28;51.88;100714.56;5055519;28;20036;-67
2023/10/10 13:41:18;;;;;;;7.63;3.20;;;;;;;22.31;51.83;100705.75;5091330;28;20036;-67
2023/10/10 13:43:47;;;;;;;6.07;3.23;;;;;;;22.33;51.23;100703.13;5091740;28;20534;-67
2023/10/10 13:46:20;;;;;;;6.45;3.10;;;;;;;22.36;51.29;100706.59;5091251;28;20036;-67
2023/10/10 13:48:47;;;;;;;6.05;2.72;;;;;;;22.24;50.63;100704.06;5091334;28;20047;-67
2023/10/10 13:51:16;;;;;;;7.32;3.65;;;;;;;22.17;51.24;100705.88;5091246;28;20032;-67
2023/10/10 13:53:43;;;;;;;7.53;3.10;;;;;;;22.10;50.93;100704.16;5091341;28;20032;-67
2023/10/10 13:56:10;;;;;;;10.45;3.15;;;;;;;22.03;51.83;100708.59;5091290;28;20078;-67
2023/10/10 13:58:36;;;;;;;7.25;3.30;;;;;;;22.02;51.17;100706.84;5090394;28;20490;-67
2023/10/10 14:01:18;;;;;;;7.20;2.78;;;;;;;22.10;52.36;100715.53;5091081;28;20051;-67
2023/10/10 14:03:48;;;;;;;9.18;3.03;;;;;;;22.02;50.94;100712.13;5055001;28;20425;-67
2023/10/10 14:06:19;;;;;;;;;;;;;;;21.92;51.49;100715.66;5091440;28;20032;-67
2023/10/10 14:08:47;;;;;;;4.13;2.58;;;;;;;21.70;52.16;100694.78;5091099;28;20369;-67
2023/10/10 14:11:22;;;;;;;3.63;2.10;;;;;;;21.60;51.64;100686.06;5090689;28;20074;-67
2023/10/10 14:13:53;;;;;;;9.02;2.67;;;;;;;21.79;51.54;100715.75;5091009;28;20035;-66
2023/10/10 14:16:20;;;;;;;5.05;2.28;;;;;;;21.79;51.86;100715.75;5091175;28;20040;-67
2023/10/10 14:18:49;;;;;;;5.03;2.60;;;;;;;21.77;52.36;100712.25;5091132;28;20035;-66
2023/10/10 14:21:16;;;;;;;5.70;2.60;;;;;;;21.70;52.52;100705.28;5091103;28;20032;-67
2023/10/10 14:23:45;;;;;;;10.35;2.67;;;;;;;21.84;52.03;100717.47;5072686;28;20452;-67
2023/10/10 14:26:18;;;;;;;4.03;1.98;;;;;;;21.92;50.96;100724.44;5090428;28;20036;-67
2023/10/10 14:28:50;;;;;;;6.63;2.20;;;;;;;21.91;51.24;100727.94;5092638;28;20032;-67